createdAt,value
2023-02-25T00:02:03.110Z,77.05
2023-02-25T00:04:32.889Z,77.05
2023-02-25T00:07:20.880Z,76.89
2023-02-25T00:09:53.414Z,76.74
2023-02-25T00:12:21.452Z,76.86
2023-02-25T00:14:49.552Z,76.84
2023-02-25T00:17:18.743Z,76.74
2023-02-25T00:19:47.134Z,76.69
2023-02-25T00:22:15.181Z,76.61
2023-02-25T00:24:43.287Z,76.81
2023-02-25T00:27:11.299Z,76.95
2023-02-25T00:29:40.376Z,76.82
2023-02-25T00:32:08.542Z,76.89
2023-02-25T00:35:28.914Z,76.96
2023-02-25T00:38:03.954Z,77.05
2023-02-25T00:40:40.565Z,77.00
2023-02-25T00:43:08.755Z,76.98
2023-02-25T00:45:39.649Z,77.02
2023-02-25T00:48:08.422Z,77.14
2023-02-25T00:50:39.764Z,77.07
2023-02-25T00:53:09.012Z,77.04
2023-02-25T00:55:37.031Z,77.03
2023-02-25T00:58:05.041Z,77.04
2023-02-25T01:00:46.425Z,77.14
2023-02-25T01:03:19.496Z,76.94
2023-02-25T01:05:50.586Z,76.87
2023-02-25T01:08:20.159Z,77.00
2023-02-25T01:10:48.225Z,77.19
2023-02-25T01:13:20.528Z,77.34
2023-02-25T01:15:48.680Z,77.35
2023-02-25T01:18:20.767Z,77.35
2023-02-25T01:20:51.558Z,77.47
2023-02-25T01:23:20.368Z,77.43
2023-02-25T01:25:50.813Z,77.46
2023-02-25T01:28:19.098Z,77.41
2023-02-25T01:30:47.770Z,77.39
2023-02-25T01:33:16.326Z,77.42
2023-02-25T01:35:45.493Z,77.18
2023-02-25T01:38:13.515Z,77.18
2023-02-25T01:40:41.691Z,77.30
2023-02-25T01:43:16.903Z,77.15
2023-02-25T01:45:45.102Z,77.25
2023-02-25T01:48:18.333Z,77.09
2023-02-25T01:50:55.350Z,77.04
2023-02-25T01:53:30.630Z,76.91
2023-02-25T01:55:58.956Z,76.95
2023-02-25T01:58:27.047Z,77.08
2023-02-25T02:00:56.530Z,77.16
2023-02-25T02:03:37.367Z,77.18
2023-02-25T02:06:12.993Z,77.29
2023-02-25T02:08:42.758Z,77.21
2023-02-25T02:11:11.615Z,77.21
2023-02-25T02:13:44.165Z,77.25
2023-02-25T02:16:37.183Z,77.18
2023-02-25T02:19:14.546Z,77.35
2023-02-25T02:22:00.715Z,77.32
2023-02-25T02:24:40.953Z,77.12
2023-02-25T02:27:14.959Z,77.14
2023-02-25T02:29:58.905Z,77.10
2023-02-25T02:32:55.699Z,76.97
2023-02-25T02:35:27.890Z,76.84
2023-02-25T02:38:26.804Z,76.88
2023-02-25T02:41:04.374Z,76.97
2023-02-25T02:43:41.667Z,76.84
2023-02-25T02:46:12.803Z,76.67
2023-02-25T02:48:49.115Z,76.59
2023-02-25T02:51:22.033Z,76.64
2023-02-25T02:53:54.573Z,76.49
2023-02-25T02:56:25.112Z,76.41
2023-02-25T02:58:59.470Z,76.45
2023-02-25T03:01:32.852Z,76.63
2023-02-25T03:04:06.233Z,76.69
2023-02-25T03:06:40.896Z,76.79
2023-02-25T03:09:18.875Z,76.68
2023-02-25T03:11:47.067Z,76.71
2023-02-25T03:14:15.955Z,76.66
2023-02-25T03:16:59.919Z,76.70
2023-02-25T03:19:45.641Z,76.55
2023-02-25T03:22:15.994Z,76.52
2023-02-25T03:25:06.666Z,76.57
2023-02-25T03:27:39.504Z,76.57
2023-02-25T03:30:31.817Z,76.51
2023-02-25T03:33:16.533Z,76.42
2023-02-25T03:35:46.330Z,76.54
2023-02-25T03:38:18.351Z,76.68
2023-02-25T03:40:47.810Z,76.61
2023-02-25T03:43:28.073Z,76.46
2023-02-25T03:45:58.358Z,76.47
2023-02-25T03:48:27.072Z,76.60
2023-02-25T03:51:03.547Z,76.69
2023-02-25T03:53:48.237Z,76.54
2023-02-25T03:56:20.805Z,76.56
2023-02-25T03:58:49.271Z,76.49
2023-02-25T04:01:28.263Z,76.53
2023-02-25T04:03:56.427Z,76.31
2023-02-25T04:06:25.672Z,76.21
2023-02-25T04:08:54.733Z,76.41
2023-02-25T04:11:23.351Z,76.30
2023-02-25T04:13:51.515Z,76.50
2023-02-25T04:16:21.920Z,76.44
2023-02-25T04:18:55.468Z,76.48
2023-02-25T04:21:32.200Z,76.72
2023-02-25T04:24:00.426Z,76.89
2023-02-25T04:26:28.515Z,76.88
2023-02-25T04:28:57.324Z,76.90
2023-02-25T04:31:25.760Z,77.13
2023-02-25T04:33:53.922Z,77.30
2023-02-25T04:36:29.038Z,77.39
2023-02-25T04:38:57.899Z,77.40
2023-02-25T04:41:29.801Z,77.72
2023-02-25T04:44:04.050Z,77.88
2023-02-25T04:46:35.775Z,78.01
2023-02-25T04:49:04.067Z,77.90
2023-02-25T04:51:35.632Z,77.95
2023-02-25T04:54:04.178Z,78.00
2023-02-25T04:56:32.282Z,78.00
2023-02-25T04:59:00.580Z,77.97
2023-02-25T05:01:28.886Z,78.07
2023-02-25T05:03:57.569Z,78.15
2023-02-25T05:06:26.017Z,78.34
2023-02-25T05:08:58.999Z,78.67
2023-02-25T05:11:28.194Z,78.51
2023-02-25T05:13:57.455Z,78.61
2023-02-25T05:16:27.264Z,78.86
2023-02-25T05:18:55.452Z,78.92
2023-02-25T05:21:26.076Z,79.03
2023-02-25T05:23:54.550Z,79.16
2023-02-25T05:26:24.296Z,79.29
2023-02-25T05:28:54.246Z,79.18
2023-02-25T05:31:24.849Z,79.15
2023-02-25T05:33:53.178Z,79.21
2023-02-25T05:36:21.740Z,78.98
2023-02-25T05:38:55.359Z,79.17
2023-02-25T05:41:23.410Z,78.98
2023-02-25T05:43:51.549Z,78.70
2023-02-25T05:46:19.827Z,78.54
2023-02-25T05:48:49.077Z,78.59
2023-02-25T05:51:18.914Z,78.44
2023-02-25T05:53:48.190Z,78.17
2023-02-25T05:56:19.440Z,77.95
2023-02-25T05:58:48.781Z,78.04
2023-02-25T06:01:22.911Z,78.10
2023-02-25T06:03:52.644Z,77.94
2023-02-25T06:06:24.784Z,77.77
2023-02-25T06:08:53.231Z,77.78
2023-02-25T06:11:29.190Z,77.67
2023-02-25T06:13:58.376Z,77.86
2023-02-25T06:16:30.500Z,77.60
2023-02-25T06:19:02.501Z,77.55
2023-02-25T06:21:34.099Z,77.40
2023-02-25T06:24:05.301Z,77.46
2023-02-25T06:26:35.519Z,77.57
2023-02-25T06:29:04.036Z,77.85
2023-02-25T06:31:34.765Z,78.17
2023-02-25T06:34:03.433Z,78.61
2023-02-25T06:36:32.327Z,79.25
2023-02-25T06:39:00.414Z,79.33
2023-02-25T06:41:28.562Z,79.18
2023-02-25T06:43:56.951Z,79.37
2023-02-25T06:46:26.089Z,79.32
2023-02-25T06:48:54.732Z,79.39
2023-02-25T06:51:23.219Z,79.01
2023-02-25T06:53:53.133Z,78.86
2023-02-25T06:56:22.735Z,78.79
2023-02-25T06:58:53.175Z,78.54
2023-02-25T07:01:21.372Z,78.15
2023-02-25T07:03:49.925Z,77.79
2023-02-25T07:06:18.289Z,77.74
2023-02-25T07:08:46.713Z,77.69
2023-02-25T07:11:18.121Z,77.52
2023-02-25T07:13:49.549Z,77.30
2023-02-25T07:16:17.667Z,77.11
2023-02-25T07:18:51.140Z,76.78
2023-02-25T07:21:20.076Z,76.73
2023-02-25T07:23:48.095Z,76.60
2023-02-25T07:27:13.565Z,76.68
2023-02-25T07:29:41.673Z,76.74
2023-02-25T07:32:09.809Z,76.82
2023-02-25T07:34:39.216Z,76.84
2023-02-25T07:37:07.451Z,76.97
2023-02-25T07:39:35.990Z,77.19
2023-02-25T07:42:04.068Z,77.25
2023-02-25T07:44:34.004Z,77.38
2023-02-25T07:47:02.118Z,77.36
2023-02-25T07:49:30.247Z,77.39
2023-02-25T07:51:58.633Z,77.62
2023-02-25T07:54:26.732Z,77.86
2023-02-25T07:56:54.810Z,77.78
2023-02-25T07:59:23.407Z,77.87
2023-02-25T08:01:55.276Z,77.97
2023-02-25T08:04:24.667Z,78.35
2023-02-25T08:06:52.975Z,78.42
2023-02-25T08:09:21.624Z,78.31
2023-02-25T08:11:49.718Z,78.39
2023-02-25T08:14:17.786Z,78.51
2023-02-25T08:16:45.832Z,78.52
2023-02-25T08:19:13.823Z,78.50
2023-02-25T08:21:43.059Z,78.64
2023-02-25T08:24:13.488Z,78.75
2023-02-25T08:26:42.590Z,78.70
2023-02-25T08:29:10.618Z,78.70
2023-02-25T08:31:39.434Z,78.69
2023-02-25T08:34:07.744Z,78.86
2023-02-25T08:36:37.409Z,79.02
2023-02-25T08:39:05.968Z,78.90
2023-02-25T08:41:35.202Z,78.75
2023-02-25T08:44:03.188Z,78.53
2023-02-25T08:46:31.907Z,78.25
2023-02-25T08:49:01.022Z,77.96
2023-02-25T08:51:34.578Z,77.69
2023-02-25T08:54:05.596Z,77.29
2023-02-25T08:56:35.273Z,76.76
2023-02-25T08:59:04.022Z,76.30
2023-02-25T09:01:45.009Z,75.86
2023-02-25T09:04:16.027Z,75.75
2023-02-25T09:06:44.470Z,75.88
2023-02-25T09:09:13.480Z,76.05
2023-02-25T09:11:41.961Z,76.26
2023-02-25T09:14:10.627Z,76.13
2023-02-25T09:16:41.068Z,76.19
2023-02-25T09:19:10.963Z,76.35
2023-02-25T09:21:43.166Z,76.40
2023-02-25T09:24:11.785Z,76.34
2023-02-25T09:26:39.863Z,76.33
2023-02-25T09:29:08.768Z,76.33
2023-02-25T09:31:37.800Z,76.50
2023-02-25T09:34:08.122Z,76.86
2023-02-25T09:36:36.921Z,76.93
2023-02-25T09:39:10.591Z,76.80
2023-02-25T09:42:03.531Z,76.76
2023-02-25T09:44:34.279Z,76.96
2023-02-25T09:47:06.459Z,76.81
2023-02-25T09:50:01.439Z,76.67
2023-02-25T09:52:38.657Z,76.73
2023-02-25T09:55:23.589Z,76.91
2023-02-25T09:58:03.087Z,76.93
2023-02-25T10:00:32.046Z,76.80
2023-02-25T10:03:05.032Z,76.97
2023-02-25T10:05:44.492Z,77.23
2023-02-25T10:08:41.917Z,77.42
2023-02-25T10:11:12.799Z,77.43
2023-02-25T10:13:44.905Z,77.44
2023-02-25T10:16:38.943Z,77.67
2023-02-25T10:19:13.430Z,77.95
2023-02-25T10:22:36.919Z,77.89
2023-02-25T10:25:14.785Z,77.78
2023-02-25T10:27:47.875Z,77.86
2023-02-25T10:30:22.960Z,78.06
2023-02-25T10:32:51.080Z,77.87
2023-02-25T10:35:25.755Z,77.76
2023-02-25T10:37:54.828Z,77.81
2023-02-25T10:40:24.581Z,77.59
2023-02-25T10:42:54.736Z,77.70
2023-02-25T10:45:28.271Z,77.73
2023-02-25T10:48:19.013Z,77.81
2023-02-25T10:51:06.536Z,77.87
2023-02-25T10:53:34.747Z,77.86
2023-02-25T10:56:07.066Z,77.67
2023-02-25T10:58:57.863Z,77.61
2023-02-25T11:01:29.430Z,77.22
2023-02-25T11:04:02.845Z,76.89
2023-02-25T11:06:36.005Z,76.68
2023-02-25T11:09:06.942Z,76.41
2023-02-25T11:11:38.684Z,76.11
2023-02-25T11:14:14.739Z,75.96
2023-02-25T11:16:44.126Z,75.63
2023-02-25T11:19:25.469Z,75.31
2023-02-25T11:21:53.749Z,75.14
2023-02-25T11:24:33.672Z,75.16
2023-02-25T11:27:02.459Z,75.21
2023-02-25T11:29:36.469Z,74.97
2023-02-25T11:32:12.228Z,74.60
2023-02-25T11:35:10.401Z,74.40
2023-02-25T11:37:43.182Z,73.87
2023-02-25T11:40:24.357Z,73.74
2023-02-25T11:43:05.009Z,73.51
2023-02-25T11:45:38.613Z,73.17
2023-02-25T11:48:19.865Z,73.01
2023-02-25T11:51:04.107Z,72.89
2023-02-25T11:53:44.984Z,72.83
2023-02-25T11:56:17.233Z,72.56
2023-02-25T11:59:01.991Z,72.38
2023-02-25T12:02:01.512Z,72.44
2023-02-25T12:04:57.665Z,72.76
2023-02-25T12:08:12.581Z,72.89
2023-02-25T12:11:06.384Z,72.70
2023-02-25T12:14:11.390Z,72.70
2023-02-25T12:16:59.401Z,72.46
2023-02-25T12:19:34.045Z,72.69
2023-02-25T12:22:02.037Z,72.74
2023-02-25T12:24:38.409Z,72.62
2023-02-25T12:27:18.614Z,72.46
2023-02-25T12:30:17.032Z,72.44
2023-02-25T12:33:15.507Z,72.60
2023-02-25T12:36:03.686Z,72.37
2023-02-25T12:38:47.431Z,72.24
2023-02-25T12:44:37.830Z,72.11
2023-02-25T12:47:14.917Z,72.12
2023-02-25T12:50:09.269Z,72.09
2023-02-25T12:52:41.065Z,71.98
2023-02-25T12:55:26.121Z,71.99
2023-02-25T12:58:22.500Z,72.04
2023-02-25T13:01:06.072Z,72.34
2023-02-25T13:03:54.415Z,72.51
2023-02-25T13:06:23.227Z,72.26
2023-02-25T13:09:01.130Z,72.26
2023-02-25T13:12:10.543Z,72.32
2023-02-25T13:14:40.720Z,72.41
2023-02-25T13:17:19.938Z,72.46
2023-02-25T13:20:07.032Z,72.45
2023-02-25T13:22:44.680Z,72.33
2023-02-25T13:25:40.704Z,72.34
2023-02-25T13:28:11.675Z,72.51
2023-02-25T13:30:49.625Z,72.43
2023-02-25T13:33:18.310Z,72.22
2023-02-25T13:35:56.045Z,72.04
2023-02-25T13:38:33.438Z,72.16
2023-02-25T13:41:14.479Z,72.19
2023-02-25T13:44:07.943Z,72.07
2023-02-25T13:46:43.432Z,71.84
2023-02-25T13:49:43.934Z,71.79
2023-02-25T13:52:30.856Z,72.01
2023-02-25T13:55:06.134Z,72.38
2023-02-25T13:57:54.239Z,72.97
2023-02-25T14:00:37.253Z,73.14
2023-02-25T14:03:24.238Z,73.40
2023-02-25T14:05:52.335Z,73.63
2023-02-25T14:08:26.816Z,73.65
2023-02-25T14:11:17.031Z,73.75
2023-02-25T14:13:48.876Z,73.71
2023-02-25T14:16:20.046Z,73.43
2023-02-25T14:19:17.611Z,73.40
2023-02-25T14:22:12.143Z,72.82
2023-02-25T14:24:42.467Z,72.30
2023-02-25T14:27:29.375Z,71.92
2023-02-25T14:30:29.764Z,71.58
2023-02-25T14:33:04.689Z,71.33
2023-02-25T14:35:52.202Z,71.28
2023-02-25T14:38:46.810Z,71.37
2023-02-25T14:41:26.845Z,71.33
2023-02-25T14:43:57.396Z,71.44
2023-02-25T14:46:31.356Z,71.46
2023-02-25T14:49:21.098Z,71.64
2023-02-25T14:52:01.575Z,71.69
2023-02-25T14:54:38.654Z,71.53
2023-02-25T14:57:21.798Z,71.65
2023-02-25T15:00:25.627Z,71.72
2023-02-25T15:03:02.828Z,71.76
2023-02-25T15:06:04.892Z,71.68
2023-02-25T15:08:46.292Z,71.41
2023-02-25T15:11:39.143Z,71.46
2023-02-25T15:14:21.792Z,71.59
2023-02-25T15:16:52.785Z,71.36
2023-02-25T15:19:27.641Z,71.43
2023-02-25T15:22:11.915Z,71.37
2023-02-25T15:24:40.869Z,71.35
2023-02-25T15:27:48.603Z,71.34
2023-02-25T15:30:23.517Z,71.42
2023-02-25T15:32:59.552Z,71.41
2023-02-25T15:35:36.535Z,71.37
2023-02-25T15:38:40.206Z,71.69
2023-02-25T15:41:26.807Z,71.81
2023-02-25T15:44:00.320Z,72.42
2023-02-25T15:46:34.835Z,72.42
2023-02-25T15:49:22.108Z,72.28
2023-02-25T15:51:51.600Z,72.09
2023-02-25T15:54:28.969Z,71.97
2023-02-25T15:57:01.420Z,71.76
2023-02-25T15:59:44.109Z,71.79
2023-02-25T16:02:30.578Z,71.79
2023-02-25T16:04:59.249Z,71.68
2023-02-25T16:07:39.291Z,71.65
2023-02-25T16:10:15.869Z,71.84
2023-02-25T16:12:46.240Z,72.02
2023-02-25T16:15:26.450Z,71.74
2023-02-25T16:17:56.591Z,71.73
2023-02-25T16:20:28.497Z,71.74
2023-02-25T16:22:57.757Z,71.96
2023-02-25T16:25:42.649Z,72.16
2023-02-25T16:28:26.805Z,72.13
2023-02-25T16:31:14.847Z,72.13
2023-02-25T16:33:53.279Z,72.33
2023-02-25T16:36:30.318Z,72.43
2023-02-25T16:39:12.684Z,72.61
2023-02-25T16:41:43.133Z,72.68
2023-02-25T16:44:18.430Z,72.75
2023-02-25T16:46:49.884Z,72.68
2023-02-25T16:49:21.282Z,72.70
2023-02-25T16:51:49.452Z,72.78
2023-02-25T16:54:21.016Z,72.73
2023-02-25T16:56:52.681Z,72.59
2023-02-25T16:59:21.814Z,72.71
2023-02-25T17:01:59.244Z,72.58
2023-02-25T17:04:31.575Z,72.57
2023-02-25T17:07:20.162Z,72.63
2023-02-25T17:09:55.424Z,72.53
2023-02-25T17:12:41.397Z,72.64
2023-02-25T17:15:29.223Z,72.88
2023-02-25T17:18:26.876Z,72.94
2023-02-25T17:21:03.911Z,72.92
2023-02-25T17:23:38.797Z,72.80
2023-02-25T17:26:06.876Z,72.87
2023-02-25T17:28:36.965Z,72.92
2023-02-25T17:31:14.203Z,73.27
2023-02-25T17:34:00.905Z,73.29
2023-02-25T17:36:35.988Z,73.33
2023-02-25T17:39:06.483Z,73.42
2023-02-25T17:41:35.768Z,73.71
2023-02-25T17:44:04.350Z,73.69
2023-02-25T17:46:39.475Z,73.84
2023-02-25T17:49:21.749Z,73.80
2023-02-25T17:52:17.077Z,73.94
2023-02-25T17:54:47.170Z,74.03
2023-02-25T17:57:17.673Z,74.00
2023-02-25T18:00:04.357Z,73.86
2023-02-25T18:02:40.426Z,73.79
2023-02-25T18:05:12.648Z,73.83
2023-02-25T18:07:43.423Z,73.84
2023-02-25T18:10:44.939Z,73.81
2023-02-25T18:13:29.282Z,73.70
2023-02-25T18:16:22.411Z,73.83
2023-02-25T18:18:51.940Z,73.88
2023-02-25T18:21:20.415Z,73.97
2023-02-25T18:23:48.782Z,73.74
2023-02-25T18:26:22.244Z,73.66
2023-02-25T18:28:51.617Z,73.59
2023-02-25T18:31:22.653Z,73.67
2023-02-25T18:33:50.966Z,73.65
2023-02-25T18:36:26.778Z,73.61
2023-02-25T18:38:57.784Z,73.55
2023-02-25T18:41:26.681Z,73.54
2023-02-25T18:43:54.794Z,73.50
2023-02-25T18:46:23.781Z,73.65
2023-02-25T18:48:52.325Z,73.56
2023-02-25T18:51:20.754Z,73.42
2023-02-25T18:53:50.744Z,73.55
2023-02-25T18:56:18.909Z,73.63
2023-02-25T18:58:47.251Z,73.65
2023-02-25T19:01:24.061Z,73.57
2023-02-25T19:03:53.952Z,73.56
2023-02-25T19:06:22.243Z,73.51
2023-02-25T19:08:50.540Z,73.49
2023-02-25T19:11:24.354Z,73.52
2023-02-25T19:13:53.205Z,73.43
2023-02-25T19:16:23.498Z,73.38
2023-02-25T19:18:51.891Z,73.35
2023-02-25T19:21:20.918Z,73.28
2023-02-25T19:23:53.945Z,73.37
2023-02-25T19:26:22.457Z,73.15
2023-02-25T19:28:51.267Z,73.06
2023-02-25T19:31:19.459Z,72.90
2023-02-25T19:33:47.674Z,73.04
2023-02-25T19:36:15.798Z,72.84
2023-02-25T19:38:43.817Z,72.74
2023-02-25T19:41:14.479Z,72.58
2023-02-25T19:43:42.710Z,72.46
2023-02-25T19:46:10.822Z,72.44
2023-02-25T19:48:38.931Z,72.36
2023-02-25T19:51:08.191Z,72.36
2023-02-25T19:53:36.615Z,72.46
2023-02-25T19:56:08.101Z,72.44
2023-02-25T19:58:36.641Z,72.47
2023-02-25T20:01:05.946Z,72.54
2023-02-25T20:03:35.767Z,72.63
2023-02-25T20:06:12.943Z,72.41
2023-02-25T20:08:43.083Z,72.15
2023-02-25T20:11:11.319Z,72.24
2023-02-25T20:13:39.436Z,72.05
2023-02-25T20:16:09.541Z,72.08
2023-02-25T20:18:37.739Z,72.00
2023-02-25T20:21:06.150Z,71.95
2023-02-25T20:23:35.090Z,71.83
2023-02-25T20:26:08.416Z,71.83
2023-02-25T20:28:36.858Z,71.83
2023-02-25T20:31:11.516Z,71.93
2023-02-25T20:33:39.971Z,71.76
2023-02-25T20:36:23.342Z,71.71
2023-02-25T20:39:12.982Z,71.71
2023-02-25T20:41:44.781Z,71.91
2023-02-25T20:44:13.286Z,72.01
2023-02-25T20:46:44.404Z,71.94
2023-02-25T20:49:14.708Z,71.95
2023-02-25T20:51:44.944Z,71.85
2023-02-25T20:54:14.145Z,71.98
2023-02-25T20:56:50.788Z,72.09
2023-02-25T20:59:19.416Z,72.03
2023-02-25T21:01:47.480Z,71.86
2023-02-25T21:04:15.741Z,71.87
2023-02-25T21:06:44.334Z,71.93
2023-02-25T21:09:16.939Z,72.00
2023-02-25T21:11:45.299Z,72.07
2023-02-25T21:14:13.371Z,72.09
2023-02-25T21:16:41.749Z,72.15
2023-02-25T21:19:10.112Z,72.16
2023-02-25T21:21:38.241Z,72.33
2023-02-25T21:24:07.742Z,72.34
2023-02-25T21:26:39.491Z,72.41
2023-02-25T21:29:08.157Z,72.36
2023-02-25T21:31:37.435Z,72.41
2023-02-25T21:34:06.710Z,72.50
2023-02-25T21:36:35.942Z,72.56
2023-02-25T21:39:04.228Z,72.59
2023-02-25T21:41:32.375Z,72.61
2023-02-25T21:44:04.054Z,72.54
2023-02-25T21:46:32.444Z,72.56
2023-02-25T21:49:00.648Z,72.59
2023-02-25T21:51:29.119Z,72.50
2023-02-25T21:53:59.011Z,72.47
2023-02-25T21:56:27.735Z,72.42
2023-02-25T21:58:57.034Z,72.44
2023-02-25T22:01:28.435Z,72.49
2023-02-25T22:03:56.709Z,72.51
2023-02-25T22:06:26.220Z,72.53
2023-02-25T22:08:55.501Z,72.49
2023-02-25T22:11:26.311Z,72.44
2023-02-25T22:14:01.276Z,72.50
2023-02-25T22:16:29.803Z,72.50
2023-02-25T22:18:58.883Z,72.37
2023-02-25T22:21:29.711Z,72.17
2023-02-25T22:23:59.125Z,72.26
2023-02-25T22:26:32.017Z,72.28
2023-02-25T22:29:05.155Z,72.36
2023-02-25T22:31:34.417Z,72.31
2023-02-25T22:34:03.062Z,72.14
2023-02-25T22:36:31.159Z,72.24
2023-02-25T22:39:00.002Z,72.21
2023-02-25T22:41:29.284Z,72.18
2023-02-25T22:43:58.125Z,72.20
2023-02-25T22:46:28.399Z,72.17
2023-02-25T22:48:56.704Z,72.17
2023-02-25T22:51:26.221Z,72.26
2023-02-25T22:53:54.415Z,72.37
2023-02-25T22:56:22.888Z,72.55
2023-02-25T22:58:51.424Z,72.38
2023-02-25T23:01:21.126Z,72.43
2023-02-25T23:03:51.611Z,72.56
2023-02-25T23:06:34.227Z,72.81
2023-02-25T23:09:10.847Z,72.80
2023-02-25T23:11:42.837Z,72.88
2023-02-25T23:14:11.898Z,72.75
2023-02-25T23:16:41.726Z,72.83
2023-02-25T23:19:16.012Z,72.95
2023-02-25T23:21:46.316Z,73.04
2023-02-25T23:24:16.529Z,72.95
2023-02-25T23:26:45.314Z,72.85
2023-02-25T23:29:13.813Z,72.87
2023-02-25T23:31:44.634Z,72.70
2023-02-25T23:34:15.093Z,72.83
2023-02-25T23:36:43.814Z,72.69
2023-02-25T23:39:12.769Z,72.61
2023-02-25T23:41:40.924Z,72.42
2023-02-25T23:44:11.498Z,72.50
2023-02-25T23:46:39.751Z,72.53
2023-02-25T23:49:07.920Z,72.61
2023-02-25T23:51:36.373Z,72.44
2023-02-25T23:54:05.954Z,72.39
2023-02-25T23:56:34.311Z,72.46
2023-02-25T23:59:03.645Z,72.40
